If you wish to contribute or participate in the discussions about articles you are invited to join SKYbrary as a registered user

 Actions

Lannion-Côte de Granit Airport

From SKYbrary Wiki

LFRO
Airport
ICAO: LFRO – IATA: LAI
Summary
Name Lannion-Côte de Granit Airport
Region Europe
Territory France FR.gif
Location , Bretagne
Serving Lannion
Elevation 88.392 m
290 ft
290 ft88.392 m
Type medium airport
Coordinates 48° 45' 15.76" N, 3° 28' 17.96" W
Runways
Designator Length Width Surface ROPS
11/29 1700 m5,577.428 ft
45 m147.638 ft
ASP yes/yes


METAR
Observation LFRO 241600Z AUTO 28010KT CAVOK 24/15 Q1015
Station Lannion / Servel
Date/Time 24 August 2019 16:00:00
Wind direction 280°
Wind speed 10 kts
Lowest cloud amount clouds and visibility OK
Temperature 24°C
Dew point 15°C
Humidity 57%
QNH 1015 hPa
Weather condition n/a